Heat Index [SAI AWOS/ASOS Display]_________FAA Disclaimer: "Not for use in aviation at this time______________" Untitled Document
Columbia County Airport
170
19:16
17/06/27
03
N/A
N/A
29.89
N/A
196
72(F), 22(C)
55(F), 13(C)
76 F
57%
BKN060 BKN070 BKN095
10
N/A
N/A
N/A
19:16 zulu Wind 170 at 03 Knots, Altimeter 29.89
METAR K1B1 271916Z AUTO 17003KT 10SM BKN060 BKN070 BKN095 22/13 A2989 A02
METAR:
FAA Disclaimer--Advisory Use ONLY, not for flight info-- 4/24/2017: Test.... New UNICOM frequency change to 123.050 mhz .... new URL for cellphones , smartphones ... http://www.saiawos2.com/1B1 --- AWOS frequency 133.525 MHz , dial in 518-828-2577, -------, NEW AWOS installed 03/03/2010 ---- ,
INFO:
Wind Direction:
Wind Speed:
Wind Gust:
Wind Variable:
Altimeter:
Dens Alt:
Elev:
Temp:
Dwpt:
Heat Index
Rel Humidity:
Ceiling:
Visibility:
Prsnt Wea:
PCPN:
Remarks:
How to read the WebPage